Time;durP1;ratioP1;P1;durP2;ratioP2;P2;SDS_P1;SDS_P2;PMS_P1;PMS_P2;Temp;Humidity;BMP_temperature;BMP_pressure;BME280_temperature;BME280_humidity;BME280_pressure;Samples;Min_cycle;Max_cycle;Signal;HPM_P1;HPM_P2
2023/09/16 00:00:23;;;;;;;26.92;17.98;;;22.30;99.90;;;;;;4978559;28;20035;-82
2023/09/16 00:02:51;;;;;;;25.38;16.80;;;22.40;99.90;;;;;;4963440;28;20482;-81
2023/09/16 00:05:18;;;;;;;28.60;16.20;;;22.40;99.90;;;;;;4963475;28;20050;-81
2023/09/16 00:07:46;;;;;;;23.40;17.13;;;22.50;99.90;;;;;;4962685;28;20101;-83
2023/09/16 00:10:13;;;;;;;27.27;17.42;;;22.50;99.90;;;;;;4975317;28;20050;-83
2023/09/16 00:12:40;;;;;;;25.27;18.00;;;22.20;99.90;;;;;;4970941;28;20151;-83
2023/09/16 00:15:08;;;;;;;24.75;17.30;;;21.60;99.90;;;;;;4973846;28;20116;-83
2023/09/16 00:17:38;;;;;;;;;;;21.70;99.90;;;;;;4941836;28;20057;-82
2023/09/16 00:20:15;;;;;;;23.88;17.02;;;22.10;99.90;;;;;;4971627;28;19937;-82
2023/09/16 00:22:43;;;;;;;22.00;16.13;;;22.30;99.90;;;;;;4957590;28;20066;-81
2023/09/16 00:25:11;;;;;;;26.10;17.70;;;22.20;99.90;;;;;;4959480;28;20043;-80
2023/09/16 00:27:41;;;;;;;24.15;16.95;;;22.30;99.90;;;;;;4959459;28;20058;-83
2023/09/16 00:30:09;;;;;;;24.85;18.10;;;22.20;99.90;;;;;;4977685;28;20232;-82
2023/09/16 00:32:36;;;;;;;29.42;19.35;;;22.00;99.90;;;;;;4958116;28;20057;-83
2023/09/16 00:35:06;;;;;;;27.17;18.85;;;22.10;99.90;;;;;;4959810;28;20031;-84
2023/09/16 00:37:34;;;;;;;25.95;18.02;;;22.00;99.90;;;;;;4960327;28;20046;-83
2023/09/16 00:40:01;;;;;;;28.88;17.73;;;21.90;99.90;;;;;;4977719;28;20588;-83
2023/09/16 00:42:29;;;;;;;27.77;19.15;;;21.80;99.90;;;;;;4972211;28;20070;-80
2023/09/16 00:44:56;;;;;;;27.77;18.73;;;21.90;99.90;;;;;;4957939;28;20091;-81
2023/09/16 00:47:23;;;;;;;25.10;17.75;;;22.00;99.90;;;;;;4960034;28;20511;-80
2023/09/16 00:49:51;;;;;;;25.80;18.73;;;21.90;99.90;;;;;;4962343;28;20047;-78
2023/09/16 00:52:18;;;;;;;24.70;18.27;;;21.90;99.90;;;;;;4959172;28;20041;-79
2023/09/16 00:54:47;;;;;;;29.02;18.73;;;21.90;99.90;;;;;;4964052;28;20407;-79
2023/09/16 00:57:15;;;;;;;27.60;18.73;;;22.00;99.90;;;;;;4958446;28;20581;-77
2023/09/16 00:59:42;;;;;;;25.05;16.85;;;21.90;99.90;;;;;;4959528;28;20031;-79
2023/09/16 01:02:09;;;;;;;21.35;15.93;;;22.00;99.90;;;;;;4959978;28;20811;-78
2023/09/16 01:04:41;;;;;;;29.70;19.30;;;21.90;99.90;;;;;;4957712;28;20499;-80
2023/09/16 01:07:09;;;;;;;22.42;16.48;;;21.90;99.90;;;;;;4958438;28;20391;-81
2023/09/16 01:09:37;;;;;;;24.02;17.60;;;21.80;99.90;;;;;;4977191;28;20052;-81
2023/09/16 01:12:04;;;;;;;24.65;17.77;;;21.60;99.90;;;;;;4959160;28;20042;-80
2023/09/16 01:14:31;;;;;;;22.95;15.57;;;21.40;99.90;;;;;;4960942;28;20065;-80
2023/09/16 01:17:24;;;;;;;26.50;16.70;;;21.00;99.90;;;;;;4962734;28;20061;-82
2023/09/16 01:20:11;;;;;;;24.08;16.40;;;21.30;99.90;;;;;;4968974;28;20464;-81
2023/09/16 01:22:44;;;;;;;23.60;15.50;;;21.60;99.90;;;;;;4956507;28;20035;-80
2023/09/16 01:25:14;;;;;;;24.50;15.63;;;21.60;99.90;;;;;;4956837;28;20069;-83
2023/09/16 01:27:43;;;;;;;23.17;15.75;;;21.50;99.90;;;;;;4956432;28;20035;-83
2023/09/16 01:30:12;;;;;;;21.10;15.52;;;21.40;99.90;;;;;;4965160;28;20075;-84
2023/09/16 01:32:52;;;;;;;21.02;14.85;;;21.50;99.90;;;;;;4978344;28;20162;-83
2023/09/16 01:35:22;;;;;;;21.13;15.85;;;21.50;99.90;;;;;;4976090;28;20045;-83
2023/09/16 01:37:50;;;;;;;25.02;15.88;;;21.50;99.90;;;;;;4962335;28;20043;-83
2023/09/16 01:40:21;;;;;;;25.48;17.08;;;21.50;99.90;;;;;;4962242;28;20035;-82
2023/09/16 01:42:52;;;;;;;21.55;15.27;;;21.50;99.90;;;;;;4978013;28;20039;-79
2023/09/16 01:45:20;;;;;;;20.77;15.88;;;21.30;99.90;;;;;;4959797;28;20042;-81
2023/09/16 01:47:48;;;;;;;22.63;15.48;;;21.40;99.90;;;;;;4961193;28;20042;-80
2023/09/16 01:50:15;;;;;;;22.02;15.70;;;21.40;99.90;;;;;;4974035;28;20038;-81
2023/09/16 01:52:43;;;;;;;26.33;16.15;;;21.20;99.90;;;;;;4970423;28;20435;-82
2023/09/16 01:55:10;;;;;;;22.30;15.65;;;21.30;99.90;;;;;;4948158;28;20047;-83
2023/09/16 01:57:37;;;;;;;24.35;16.63;;;21.40;99.90;;;;;;4965345;28;20046;-83
2023/09/16 02:00:05;;;;;;;25.60;16.83;;;21.30;99.90;;;;;;4948086;28;20094;-82
2023/09/16 02:02:38;;;;;;;24.75;16.52;;;21.40;99.90;;;;;;4962590;28;20443;-80
2023/09/16 02:05:06;;;;;;;23.45;16.17;;;21.40;99.90;;;;;;4965019;28;20105;-81
2023/09/16 02:07:33;;;;;;;25.48;17.42;;;21.30;99.90;;;;;;4977980;28;20051;-84
2023/09/16 02:10:01;;;;;;;22.52;15.77;;;21.30;99.90;;;;;;4960997;28;20035;-82
2023/09/16 02:12:28;;;;;;;23.15;15.02;;;21.30;99.90;;;;;;4961485;28;20034;-81
2023/09/16 02:14:55;;;;;;;29.30;16.40;;;21.50;99.90;;;;;;4963533;28;20113;-82
2023/09/16 02:17:22;;;;;;;23.30;15.77;;;21.40;99.90;;;;;;4964259;28;20067;-82
2023/09/16 02:19:51;;;;;;;23.45;16.35;;;21.40;99.90;;;;;;4960529;28;20716;-82
2023/09/16 02:22:18;;;;;;;23.40;15.73;;;21.40;99.90;;;;;;4962641;28;20054;-82
2023/09/16 02:24:46;;;;;;;22.48;15.07;;;21.50;99.90;;;;;;4959224;28;20431;-82
2023/09/16 02:27:13;;;;;;;22.65;15.10;;;21.30;99.90;;;;;;4963838;28;20035;-83
2023/09/16 02:29:40;;;;;;;20.50;14.63;;;21.40;99.90;;;;;;4977594;28;20047;-84
2023/09/16 02:32:07;;;;;;;21.48;15.18;;;21.40;99.90;;;;;;4979651;28;20042;-82
2023/09/16 02:34:36;;;;;;;24.50;14.65;;;21.50;99.90;;;;;;4960984;28;20072;-82
2023/09/16 02:37:03;;;;;;;22.35;14.57;;;21.40;99.90;;;;;;4962494;28;20043;-83
2023/09/16 02:39:30;;;;;;;21.35;14.60;;;21.50;99.90;;;;;;4961501;28;20119;-83
2023/09/16 02:41:58;;;;;;;24.02;15.60;;;21.50;99.90;;;;;;4965616;28;20380;-82
2023/09/16 02:44:25;;;;;;;25.15;15.32;;;21.40;99.90;;;;;;4961858;28;20035;-82
2023/09/16 02:46:53;;;;;;;21.92;16.00;;;21.50;99.90;;;;;;4978255;28;20138;-82
2023/09/16 02:49:20;;;;;;;21.05;14.45;;;21.40;99.90;;;;;;4962782;28;20035;-79
2023/09/16 02:51:48;;;;;;;21.20;15.00;;;21.20;99.90;;;;;;4948018;28;20043;-83
2023/09/16 02:54:16;;;;;;;19.88;15.15;;;21.30;99.90;;;;;;4954982;28;20726;-80
2023/09/16 02:56:44;;;;;;;26.30;15.60;;;21.30;99.90;;;;;;4963936;28;20135;-81
2023/09/16 02:59:11;;;;;;;23.30;15.73;;;21.30;99.90;;;;;;4948202;28;20039;-81
2023/09/16 03:01:38;;;;;;;20.95;14.32;;;21.40;99.90;;;;;;4963977;28;20077;-80
2023/09/16 03:04:05;;;;;;;25.90;16.60;;;21.50;99.90;;;;;;4962804;28;20146;-81
2023/09/16 03:06:32;;;;;;;20.10;14.48;;;21.30;99.90;;;;;;4958832;28;20044;-82
2023/09/16 03:08:59;;;;;;;23.13;15.32;;;21.20;99.90;;;;;;4961341;28;20039;-81
2023/09/16 03:11:27;;;;;;;22.98;14.52;;;21.10;99.90;;;;;;4945899;28;20129;-80
2023/09/16 03:13:55;;;;;;;24.80;15.60;;;21.00;99.90;;;;;;4961495;28;20487;-80
2023/09/16 03:16:23;;;;;;;24.25;16.02;;;20.90;99.90;;;;;;4942621;28;20054;-83
2023/09/16 03:18:52;;;;;;;19.45;14.60;;;21.00;99.90;;;;;;4975603;28;20474;-80
2023/09/16 03:21:24;;;;;;;20.48;14.85;;;21.00;99.90;;;;;;4974606;28;20407;-82
2023/09/16 03:23:52;;;;;;;23.98;15.75;;;21.00;99.90;;;;;;4973056;28;20388;-83
2023/09/16 03:26:19;;;;;;;21.15;14.93;;;21.00;99.90;;;;;;4963329;28;20134;-83
2023/09/16 03:28:47;;;;;;;22.40;15.38;;;20.80;99.90;;;;;;4943509;29;20625;-81
2023/09/16 03:31:15;;;;;;;22.75;14.45;;;20.70;99.90;;;;;;4965607;28;20520;-83
2023/09/16 03:33:43;;;;;;;21.27;14.45;;;20.60;99.90;;;;;;4959955;28;20053;-81
2023/09/16 03:36:10;;;;;;;22.00;14.02;;;20.80;99.90;;;;;;4958605;28;20436;-84
2023/09/16 03:38:49;;;;;;;18.67;13.90;;;20.70;99.90;;;;;;4975708;28;20202;-82
2023/09/16 03:41:17;;;;;;;21.10;13.82;;;20.80;99.90;;;;;;4962204;28;20034;-81
2023/09/16 03:43:44;;;;;;;19.92;13.63;;;20.60;99.90;;;;;;4962642;28;20042;-82
2023/09/16 03:46:16;;;;;;;17.63;13.77;;;20.40;99.90;;;;;;4958362;28;20058;-79
2023/09/16 03:48:43;;;;;;;18.83;12.90;;;20.50;99.90;;;;;;4961130;28;20566;-82
2023/09/16 03:51:10;;;;;;;22.58;13.45;;;20.70;99.90;;;;;;4960431;28;20078;-82
2023/09/16 03:53:38;;;;;;;21.38;14.20;;;20.40;99.90;;;;;;4958605;28;20054;-82
2023/09/16 03:56:11;;;;;;;22.42;13.77;;;20.50;99.90;;;;;;4961313;28;20039;-80
2023/09/16 03:58:39;;;;;;;20.17;13.75;;;20.50;99.90;;;;;;4959746;28;20845;-79
2023/09/16 04:01:06;;;;;;;22.85;15.10;;;20.40;99.90;;;;;;4976110;28;20070;-81
2023/09/16 04:03:34;;;;;;;20.00;12.85;;;20.50;99.90;;;;;;4945900;28;20122;-80
2023/09/16 04:06:03;;;;;;;22.83;13.65;;;20.70;99.90;;;;;;4959392;28;20522;-79
2023/09/16 04:08:31;;;;;;;20.77;13.90;;;20.70;99.90;;;;;;4959786;28;20051;-80
2023/09/16 04:11:09;;;;;;;21.25;14.60;;;20.60;99.90;;;;;;4962480;28;20114;-80
2023/09/16 04:13:37;;;;;;;18.13;13.75;;;20.70;99.90;;;;;;4959094;28;20049;-82
2023/09/16 04:16:04;;;;;;;18.58;13.65;;;20.70;99.90;;;;;;4959468;28;20126;-82
2023/09/16 04:18:34;;;;;;;22.63;13.88;;;20.60;99.90;;;;;;4975190;28;20499;-82
2023/09/16 04:21:02;;;;;;;22.10;14.00;;;20.40;99.90;;;;;;4959134;28;20560;-81
2023/09/16 04:23:30;;;;;;;20.92;14.70;;;20.50;99.90;;;;;;4943446;28;20101;-83
2023/09/16 04:26:00;;;;;;;24.67;14.73;;;20.60;99.90;;;;;;4962005;28;20038;-82
2023/09/16 04:28:29;;;;;;;20.10;13.73;;;20.50;99.90;;;;;;4961233;28;20066;-81
2023/09/16 04:30:59;;;;;;;22.45;13.65;;;20.40;99.90;;;;;;4959466;28;20070;-82
2023/09/16 04:33:26;;;;;;;21.10;14.20;;;20.50;99.90;;;;;;4961794;28;20499;-83
2023/09/16 04:35:53;;;;;;;22.35;13.82;;;20.40;99.90;;;;;;4960144;28;20499;-82
2023/09/16 04:38:22;;;;;;;24.33;14.55;;;20.30;99.90;;;;;;4959679;28;20050;-84
2023/09/16 04:40:50;;;;;;;18.67;14.02;;;20.30;99.90;;;;;;4958666;28;20032;-83
2023/09/16 04:43:17;;;;;;;20.92;13.77;;;20.40;99.90;;;;;;4956763;28;20094;-83
2023/09/16 04:45:44;;;;;;;24.40;15.00;;;20.20;99.90;;;;;;4959929;28;20051;-82
2023/09/16 04:48:13;;;;;;;20.55;14.95;;;20.30;99.90;;;;;;4961808;28;20411;-81
2023/09/16 04:50:48;;;;;;;24.33;14.05;;;20.30;99.90;;;;;;4943337;28;20559;-79
2023/09/16 04:53:16;;;;;;;23.17;14.98;;;20.20;99.90;;;;;;4958678;28;20551;-80
2023/09/16 04:55:43;;;;;;;21.92;13.80;;;20.40;99.90;;;;;;4975612;28;20054;-81
2023/09/16 04:58:10;;;;;;;19.92;13.60;;;20.50;99.90;;;;;;4961749;28;20046;-80
2023/09/16 05:00:38;;;;;;;18.92;14.32;;;20.40;99.90;;;;;;4960260;28;20106;-81
2023/09/16 05:03:06;;;;;;;21.23;15.30;;;20.50;99.90;;;;;;4964599;28;20075;-81
2023/09/16 05:05:35;;;;;;;21.77;14.27;;;20.70;99.90;;;;;;4966488;28;20434;-79
2023/09/16 05:08:02;;;;;;;28.15;14.23;;;20.60;99.90;;;;;;4963933;28;20089;-78
2023/09/16 05:10:29;;;;;;;21.92;14.00;;;20.80;99.90;;;;;;4964668;28;20046;-80
2023/09/16 05:12:57;;;;;;;23.55;14.55;;;20.90;99.90;;;;;;4964028;28;20046;-80
2023/09/16 05:15:26;;;;;;;23.27;13.80;;;20.90;99.90;;;;;;4964596;28;20086;-80
2023/09/16 05:17:54;;;;;;;23.92;14.23;;;20.90;99.90;;;;;;4965852;28;20039;-80
2023/09/16 05:20:21;;;;;;;21.30;14.65;;;20.90;99.90;;;;;;4947271;28;20070;-82
2023/09/16 05:22:49;;;;;;;23.17;14.63;;;20.90;99.90;;;;;;4963817;28;20055;-81
2023/09/16 05:25:17;;;;;;;22.42;15.57;;;20.90;99.90;;;;;;4966469;28;20035;-78
2023/09/16 05:27:44;;;;;;;21.33;14.80;;;20.90;99.90;;;;;;4975174;28;20109;-79
2023/09/16 05:30:11;;;;;;;23.98;14.90;;;20.80;99.90;;;;;;4963676;28;20444;-80
2023/09/16 05:32:39;;;;;;;23.02;14.77;;;20.80;99.90;;;;;;4963578;28;20074;-79
2023/09/16 05:35:07;;;;;;;23.73;14.50;;;21.10;99.90;;;;;;4964812;28;20113;-79
2023/09/16 05:37:34;;;;;;;24.80;15.77;;;21.20;99.90;;;;;;4962958;28;20090;-80
2023/09/16 05:40:02;;;;;;;21.02;14.65;;;21.20;99.90;;;;;;4965904;28;20036;-79
2023/09/16 05:42:29;;;;;;;21.90;15.45;;;21.30;99.90;;;;;;4964796;28;20078;-81
2023/09/16 05:45:00;;;;;;;22.38;15.90;;;21.20;99.90;;;;;;4965650;28;20114;-78
2023/09/16 05:47:30;;;;;;;22.73;15.98;;;20.90;99.90;;;;;;4977652;28;20491;-79
2023/09/16 05:49:58;;;;;;;29.85;16.60;;;20.50;99.90;;;;;;4964516;28;20073;-79
2023/09/16 05:52:25;;;;;;;29.42;16.63;;;20.50;99.90;;;;;;4962197;28;20050;-78
2023/09/16 05:54:52;;;;;;;29.05;17.98;;;20.60;99.90;;;;;;4963668;28;20042;-81
2023/09/16 05:57:20;;;;;;;24.17;16.02;;;20.80;99.90;;;;;;4963507;28;20046;-81
2023/09/16 05:59:47;;;;;;;21.63;15.50;;;21.10;99.90;;;;;;4963992;28;20507;-80
2023/09/16 06:02:16;;;;;;;24.35;17.38;;;21.30;99.90;;;;;;4977165;28;20053;-82
2023/09/16 06:04:46;;;;;;;24.85;16.52;;;20.90;99.90;;;;;;4963790;28;20116;-83
2023/09/16 06:07:14;;;;;;;26.73;16.55;;;21.00;99.90;;;;;;4975767;28;20054;-82
2023/09/16 06:09:41;;;;;;;25.92;17.02;;;21.30;99.90;;;;;;4960859;28;20129;-83
2023/09/16 06:12:09;;;;;;;24.50;16.20;;;21.40;99.90;;;;;;4963239;28;20519;-82
2023/09/16 06:14:37;;;;;;;22.77;16.42;;;21.30;99.90;;;;;;4961279;28;20077;-82
2023/09/16 06:17:05;;;;;;;26.83;16.13;;;21.50;99.90;;;;;;4978035;28;20391;-80
2023/09/16 06:19:33;;;;;;;26.92;16.48;;;21.40;99.90;;;;;;4965865;28;20054;-81
2023/09/16 06:22:01;;;;;;;25.40;16.67;;;21.60;99.90;;;;;;4963389;28;20459;-83
2023/09/16 06:24:28;;;;;;;28.48;16.25;;;21.50;99.90;;;;;;4963318;28;20089;-81
2023/09/16 06:26:55;;;;;;;25.23;15.98;;;21.70;99.90;;;;;;4961498;28;20047;-81
2023/09/16 06:29:22;;;;;;;28.27;14.90;;;21.80;99.90;;;;;;4943323;28;20490;-82
2023/09/16 06:31:50;;;;;;;21.98;15.13;;;21.80;99.90;;;;;;4961741;28;20035;-80
2023/09/16 06:34:18;;;;;;;26.70;16.23;;;21.60;99.90;;;;;;4965420;28;20102;-81
2023/09/16 06:36:54;;;;;;;26.33;16.02;;;21.70;99.90;;;;;;4947930;28;20521;-82
2023/09/16 06:39:23;;;;;;;25.17;15.07;;;21.90;99.90;;;;;;4962035;28;20058;-82
2023/09/16 06:41:50;;;;;;;22.98;14.60;;;21.90;99.90;;;;;;4962945;28;20034;-82
2023/09/16 06:44:18;;;;;;;22.52;14.30;;;21.60;99.90;;;;;;4963868;28;20130;-82
2023/09/16 06:46:45;;;;;;;23.30;14.05;;;21.80;99.90;;;;;;4959673;28;20043;-79
2023/09/16 06:49:12;;;;;;;25.38;14.98;;;21.90;99.90;;;;;;4960346;28;20047;-82
2023/09/16 06:51:40;;;;;;;23.95;13.90;;;21.80;99.90;;;;;;4946390;28;20066;-82
2023/09/16 06:54:07;;;;;;;23.02;13.77;;;22.00;99.90;;;;;;4960441;28;20039;-80
2023/09/16 06:56:34;;;;;;;22.00;14.48;;;22.10;99.90;;;;;;4959585;28;20056;-80
2023/09/16 06:59:02;;;;;;;22.02;13.48;;;22.20;99.90;;;;;;4943674;28;20525;-81
2023/09/16 07:01:29;;;;;;;23.65;13.27;;;22.30;99.90;;;;;;4958229;28;20582;-82
2023/09/16 07:03:58;;;;;;;24.30;15.05;;;22.50;99.90;;;;;;4957453;28;20130;-82
2023/09/16 07:06:25;;;;;;;27.45;14.68;;;22.40;99.90;;;;;;4943304;28;20067;-80
2023/09/16 07:08:53;;;;;;;21.95;13.98;;;22.50;99.90;;;;;;4958637;28;20039;-80
2023/09/16 07:11:20;;;;;;;22.95;14.35;;;22.60;99.90;;;;;;4975500;28;20042;-81
2023/09/16 07:13:47;;;;;;;22.63;14.52;;;22.70;99.90;;;;;;4958072;28;20487;-82
2023/09/16 07:16:19;;;;;;;27.63;17.63;;;22.80;99.90;;;;;;4958558;28;20105;-82
2023/09/16 07:18:47;;;;;;;23.88;15.05;;;22.80;99.90;;;;;;4973577;28;20039;-83
2023/09/16 07:21:14;;;;;;;24.42;15.23;;;23.10;99.90;;;;;;4961115;28;20353;-83
2023/09/16 07:23:42;;;;;;;21.92;15.77;;;23.20;99.90;;;;;;4946280;28;20138;-83
2023/09/16 07:26:18;;;;;;;32.25;17.27;;;23.30;99.90;;;;;;4958940;28;20059;-82
2023/09/16 07:28:46;;;;;;;25.42;17.98;;;23.30;99.90;;;;;;4959145;28;20038;-83
2023/09/16 07:31:14;;;;;;;32.55;18.88;;;23.10;99.90;;;;;;4945185;28;20070;-82
2023/09/16 07:33:41;;;;;;;24.17;16.48;;;23.20;99.90;;;;;;4970674;28;20043;-83
2023/09/16 07:36:08;;;;;;;25.98;16.98;;;23.30;99.90;;;;;;4957291;28;20132;-83
2023/09/16 07:38:37;;;;;;;27.02;16.73;;;23.40;99.90;;;;;;4961134;28;20398;-85
2023/09/16 07:41:04;;;;;;;31.95;18.48;;;23.30;99.90;;;;;;4959835;28;20039;-82
2023/09/16 07:43:31;;;;;;;25.52;16.65;;;23.30;99.90;;;;;;4943334;28;20503;-80
2023/09/16 07:45:59;;;;;;;55.28;33.80;;;23.30;99.90;;;;;;4958655;28;20043;-81
2023/09/16 07:48:26;;;;;;;36.60;24.58;;;23.40;99.90;;;;;;4974791;28;20394;-83
2023/09/16 07:50:54;;;;;;;63.85;42.67;;;23.50;99.90;;;;;;4956195;28;20052;-81
2023/09/16 07:53:21;;;;;;;29.92;20.67;;;23.50;99.90;;;;;;4957502;28;20466;-82
2023/09/16 07:55:49;;;;;;;371.88;265.77;;;23.30;99.90;;;;;;4958092;28;20035;-80
2023/09/16 07:58:16;;;;;;;54.38;41.65;;;23.50;99.90;;;;;;4960322;28;20129;-83
2023/09/16 08:00:43;;;;;;;30.13;22.13;;;23.60;99.90;;;;;;4951416;28;20067;-81
2023/09/16 08:03:11;;;;;;;32.95;20.48;;;23.80;99.90;;;;;;4951664;28;20443;-81
2023/09/16 08:05:39;;;;;;;27.00;17.25;;;23.80;99.90;;;;;;4968745;28;20067;-81
2023/09/16 08:08:06;;;;;;;23.02;16.10;;;23.70;99.90;;;;;;4958958;28;20043;-81
2023/09/16 08:10:34;;;;;;;24.55;15.82;;;23.70;99.90;;;;;;4960155;28;20059;-82
2023/09/16 08:13:03;;;;;;;17.87;12.83;;;23.80;99.90;;;;;;4962381;28;20451;-83
2023/09/16 08:15:31;;;;;;;50.50;34.58;;;23.70;99.90;;;;;;4960763;28;20054;-80
2023/09/16 08:17:58;;;;;;;100.15;70.70;;;24.00;99.90;;;;;;4954388;28;20075;-81
2023/09/16 08:20:25;;;;;;;43.53;30.35;;;24.40;99.90;;;;;;4949754;28;20578;-82
2023/09/16 08:22:53;;;;;;;23.48;17.02;;;24.30;99.90;;;;;;4972762;28;20054;-81
2023/09/16 08:25:21;;;;;;;21.17;15.05;;;24.40;99.90;;;;;;4953377;28;20046;-79
2023/09/16 08:27:48;;;;;;;20.80;13.63;;;24.40;99.90;;;;;;4953005;28;20047;-79
2023/09/16 08:30:15;;;;;;;20.00;13.43;;;24.60;99.90;;;;;;4957049;28;20043;-79
2023/09/16 08:32:43;;;;;;;21.75;13.90;;;24.60;99.90;;;;;;4948213;28;20043;-78
2023/09/16 08:35:10;;;;;;;27.50;15.77;;;24.70;99.90;;;;;;4956007;28;20043;-79
2023/09/16 08:37:37;;;;;;;19.50;14.02;;;24.90;99.90;;;;;;4968987;28;20032;-79
2023/09/16 08:40:05;;;;;;;18.50;12.73;;;25.00;99.90;;;;;;4959232;28;20032;-79
2023/09/16 08:42:45;;;;;;;20.00;12.68;;;24.90;99.90;;;;;;4958863;28;20046;-80
2023/09/16 08:45:18;;;;;;;14.45;11.52;;;25.00;99.90;;;;;;4961617;28;20047;-82
2023/09/16 08:47:57;;;;;;;16.75;12.07;;;25.20;99.90;;;;;;4952898;28;20146;-80
2023/09/16 08:50:26;;;;;;;15.48;11.10;;;25.30;99.90;;;;;;4964872;28;20070;-82
2023/09/16 08:53:03;;;;;;;18.73;12.63;;;25.20;99.90;;;;;;4957273;28;20048;-82
2023/09/16 08:55:32;;;;;;;16.88;10.27;;;25.60;99.90;;;;;;4948134;28;20047;-82
2023/09/16 08:58:06;;;;;;;15.25;10.77;;;25.70;99.90;;;;;;4955697;28;20050;-81
2023/09/16 09:00:34;;;;;;;12.75;9.10;;;25.90;99.90;;;;;;4941519;28;20051;-81
2023/09/16 09:03:01;;;;;;;18.23;11.40;;;26.00;99.90;;;;;;4973542;28;20041;-81
2023/09/16 09:05:30;;;;;;;16.05;10.73;;;25.90;99.90;;;;;;4959063;28;20450;-83
2023/09/16 09:07:58;;;;;;;29.15;20.08;;;26.10;99.90;;;;;;4973429;28;20067;-81
2023/09/16 09:10:30;;;;;;;42.15;32.47;;;26.30;99.90;;;;;;4955555;28;20051;-80
2023/09/16 09:13:00;;;;;;;31.00;22.58;;;26.40;99.70;;;;;;4962346;28;20098;-82
2023/09/16 09:15:28;;;;;;;12.18;9.38;;;26.70;99.30;;;;;;4955743;28;20047;-82
2023/09/16 09:17:57;;;;;;;17.65;8.85;;;26.50;98.90;;;;;;4958344;28;20062;-79
2023/09/16 09:20:27;;;;;;;14.07;7.97;;;26.60;98.80;;;;;;4955386;28;20452;-80
2023/09/16 09:22:55;;;;;;;11.43;7.93;;;26.50;98.90;;;;;;4959949;28;20043;-79
2023/09/16 09:25:27;;;;;;;36.88;24.98;;;26.70;98.50;;;;;;4939711;28;20051;-80
2023/09/16 09:27:57;;;;;;;58.80;40.17;;;27.00;98.10;;;;;;4956333;28;20073;-80
2023/09/16 09:30:29;;;;;;;77.80;51.97;;;27.10;98.00;;;;;;4946819;28;20382;-81
2023/09/16 09:32:57;;;;;;;39.97;30.90;;;27.30;97.40;;;;;;4938633;29;20039;-84
2023/09/16 09:35:30;;;;;;;54.35;33.72;;;27.40;97.00;;;;;;4954427;28;20491;-83
2023/09/16 09:38:24;;;;;;;18.30;12.52;;;27.30;96.60;;;;;;4950611;28;20388;-83
2023/09/16 09:40:58;;;;;;;15.63;9.10;;;27.30;96.40;;;;;;4956265;28;20114;-83
2023/09/16 09:43:42;;;;;;;18.42;10.30;;;27.20;95.90;;;;;;4958002;28;20170;-82
2023/09/16 09:46:17;;;;;;;21.60;11.73;;;27.30;96.00;;;;;;4970954;28;20129;-85
2023/09/16 09:48:44;;;;;;;34.30;15.35;;;27.40;95.90;;;;;;4960805;28;20040;-81
2023/09/16 09:51:19;;;;;;;20.42;10.00;;;27.30;95.90;;;;;;4961558;28;20630;-87
2023/09/16 09:53:47;;;;;;;18.05;10.13;;;27.30;95.30;;;;;;4961661;28;20122;-84
2023/09/16 09:56:14;;;;;;;18.63;10.82;;;27.60;95.20;;;;;;4958321;28;20101;-84
2023/09/16 09:58:42;;;;;;;12.70;9.30;;;27.70;95.20;;;;;;4956624;28;20047;-87
2023/09/16 10:01:10;;;;;;;24.90;12.00;;;27.80;95.00;;;;;;4967190;28;20082;-83
2023/09/16 10:03:38;;;;;;;19.55;11.48;;;27.90;95.00;;;;;;4951788;28;20055;-87
2023/09/16 10:06:16;;;;;;;26.58;13.27;;;28.00;94.80;;;;;;4957389;28;20057;-86
2023/09/16 10:08:44;;;;;;;24.08;12.30;;;28.20;94.30;;;;;;4978630;28;20048;-85
2023/09/16 10:11:11;;;;;;;13.52;9.20;;;28.50;93.80;;;;;;4945724;29;20074;-85
2023/09/16 10:13:39;;;;;;;22.17;12.15;;;28.40;93.50;;;;;;4960310;28;20427;-86
2023/09/16 10:16:07;;;;;;;23.05;11.95;;;28.20;93.80;;;;;;4944598;28;20105;-85
2023/09/16 10:18:34;;;;;;;18.98;11.48;;;28.40;93.70;;;;;;4970852;28;20146;-86
2023/09/16 10:21:02;;;;;;;14.90;9.95;;;28.60;93.50;;;;;;4942446;28;20147;-84
2023/09/16 10:23:29;;;;;;;17.88;10.20;;;28.90;92.90;;;;;;4943639;28;20109;-84
2023/09/16 10:25:57;;;;;;;19.08;11.93;;;29.10;92.50;;;;;;4960937;28;20114;-84
2023/09/16 10:28:25;;;;;;;15.63;9.20;;;29.20;92.20;;;;;;4960937;28;20048;-86
2023/09/16 10:30:53;;;;;;;14.25;10.10;;;29.10;91.90;;;;;;4959739;28;20051;-84
2023/09/16 10:33:21;;;;;;;16.52;10.23;;;28.70;92.30;;;;;;4962227;28;20086;-86
2023/09/16 10:35:50;;;;;;;12.25;9.00;;;29.00;92.00;;;;;;4958942;28;20554;-86
2023/09/16 10:38:19;;;;;;;18.47;10.63;;;29.00;91.60;;;;;;4962163;28;20097;-85
2023/09/16 10:40:47;;;;;;;18.00;10.82;;;28.70;91.80;;;;;;4962521;28;20314;-86
2023/09/16 10:43:16;;;;;;;15.38;9.93;;;28.30;92.40;;;;;;4964205;28;20055;-84
2023/09/16 10:45:48;;;;;;;15.63;9.27;;;28.60;91.90;;;;;;4949626;28;20051;-86
2023/09/16 10:48:17;;;;;;;18.63;9.88;;;29.10;91.20;;;;;;4946551;28;20043;-87
2023/09/16 10:50:47;;;;;;;12.52;8.93;;;29.40;90.90;;;;;;4946595;28;20589;-85
2023/09/16 10:53:25;;;;;;;13.32;8.77;;;29.40;90.20;;;;;;4963922;28;20410;-85
2023/09/16 10:56:10;;;;;;;13.25;8.73;;;29.40;90.30;;;;;;4957711;28;20098;-83
2023/09/16 10:58:42;;;;;;;15.30;8.55;;;29.60;89.80;;;;;;4975780;28;20055;-85
2023/09/16 11:01:36;;;;;;;16.40;9.05;;;29.70;89.10;;;;;;4948382;28;20039;-85
2023/09/16 11:04:23;;;;;;;12.80;9.20;;;29.80;88.60;;;;;;4942313;28;20468;-85
2023/09/16 11:20:36;;;;;;;13.43;8.63;;;30.10;85.30;;;;;;4962143;28;20058;-84
2023/09/16 11:25:20;;;;;;;12.30;8.80;;;30.70;84.30;;;;;;5005040;28;20069;-83
2023/09/16 11:29:34;;;;;;;12.93;8.82;;;30.90;81.70;;;;;;4982570;28;20073;-86
2023/09/16 11:32:02;;;;;;;12.93;8.65;;;30.90;81.70;;;;;;4974230;28;20457;-85
2023/09/16 11:34:32;;;;;;;13.02;7.95;;;31.00;81.60;;;;;;5008372;28;20061;-86
2023/09/16 11:37:01;;;;;;;14.02;8.85;;;31.50;80.60;;;;;;5008983;28;20075;-86
2023/09/16 11:39:35;;;;;;;10.25;7.32;;;32.90;77.10;;;;;;4992095;28;20077;-85
2023/09/16 11:42:03;;;;;;;12.02;8.70;;;32.20;76.10;;;;;;4992102;28;20073;-85
2023/09/16 11:44:30;;;;;;;10.93;8.60;;;31.70;77.80;;;;;;4991939;28;20050;-84
2023/09/16 11:47:00;;;;;;;12.20;9.25;;;30.90;79.00;;;;;;4988615;28;20048;-84
2023/09/16 11:49:27;;;;;;;12.40;8.18;;;30.60;79.30;;;;;;4994573;28;20466;-85
2023/09/16 11:51:57;;;;;;;12.10;8.57;;;30.80;78.50;;;;;;4973156;28;20034;-84
2023/09/16 11:54:25;;;;;;;11.13;8.52;;;30.80;77.50;;;;;;4971975;28;20054;-85
2023/09/16 11:56:57;;;;;;;11.73;8.65;;;30.80;77.40;;;;;;4975713;28;20043;-84
2023/09/16 11:59:26;;;;;;;15.40;9.15;;;30.90;77.40;;;;;;4961267;28;20681;-85
2023/09/16 12:01:54;;;;;;;14.57;9.50;;;31.20;77.20;;;;;;4961144;28;20443;-83
2023/09/16 12:04:36;;;;;;;11.15;8.82;;;31.20;76.20;;;;;;4960612;28;20058;-84
2023/09/16 12:07:04;;;;;;;12.73;9.85;;;31.50;76.40;;;;;;4962912;28;20053;-86
2023/09/16 12:09:33;;;;;;;11.02;8.75;;;30.70;76.80;;;;;;4959523;28;20451;-86
2023/09/16 12:12:01;;;;;;;12.20;8.85;;;30.20;78.20;;;;;;4946696;28;20045;-84
2023/09/16 12:14:29;;;;;;;12.40;8.50;;;30.50;77.90;;;;;;4956787;28;20126;-86
2023/09/16 12:16:56;;;;;;;13.70;7.80;;;30.80;76.60;;;;;;4976068;28;20081;-86
2023/09/16 12:19:26;;;;;;;11.20;8.48;;;31.30;75.80;;;;;;4958432;28;20051;-85
2023/09/16 12:21:54;;;;;;;10.23;8.32;;;31.60;74.90;;;;;;4963034;28;20042;-84
2023/09/16 12:24:24;;;;;;;11.30;8.60;;;31.80;74.30;;;;;;4960307;28;20073;-87
2023/09/16 12:26:54;;;;;;;12.55;8.73;;;31.80;74.20;;;;;;4946779;28;20071;-83
2023/09/16 12:29:22;;;;;;;10.35;8.30;;;32.00;73.50;;;;;;4959891;28;20053;-84
2023/09/16 12:31:50;;;;;;;11.40;8.95;;;32.20;73.20;;;;;;4959375;28;20055;-83
2023/09/16 12:34:18;;;;;;;13.32;9.25;;;32.20;73.00;;;;;;4946960;28;20051;-85
2023/09/16 12:36:48;;;;;;;9.60;7.53;;;32.30;71.10;;;;;;4960537;28;20051;-84
2023/09/16 12:39:17;;;;;;;11.00;8.02;;;32.20;70.70;;;;;;4960330;28;20781;-84
2023/09/16 12:41:46;;;;;;;11.38;7.93;;;32.30;70.90;;;;;;4943565;28;20035;-87
2023/09/16 12:44:27;;;;;;;11.55;7.53;;;32.50;71.40;;;;;;4943787;28;20118;-87
2023/09/16 12:46:57;;;;;;;10.32;7.32;;;32.20;70.50;;;;;;4974859;28;20062;-87
2023/09/16 12:49:26;;;;;;;9.25;7.15;;;32.40;70.70;;;;;;4974872;28;20129;-83
2023/09/16 12:51:56;;;;;;;10.57;8.03;;;32.70;69.40;;;;;;4946585;28;20051;-85
2023/09/16 12:54:23;;;;;;;11.35;7.43;;;32.60;69.90;;;;;;4960747;28;20304;-85